createdAt,value
2023-05-14T00:01:42.154Z,8.30
2023-05-14T00:05:59.422Z,8.40
2023-05-14T00:10:19.097Z,8.70
2023-05-14T00:14:36.380Z,8.75
2023-05-14T00:18:53.742Z,8.77
2023-05-14T00:23:11.531Z,8.88
2023-05-14T00:27:28.807Z,8.68
2023-05-14T00:31:46.126Z,9.30
2023-05-14T00:36:04.137Z,9.10
2023-05-14T00:40:25.866Z,11.43
2023-05-14T00:44:43.200Z,10.90
2023-05-14T00:49:00.540Z,10.57
2023-05-14T00:53:19.641Z,9.88
2023-05-14T00:57:37.561Z,10.20
2023-05-14T01:01:54.834Z,10.43
2023-05-14T01:06:16.497Z,9.32
2023-05-14T01:10:52.722Z,9.20
2023-05-14T01:15:21.104Z,9.52
2023-05-14T01:19:41.967Z,10.20
2023-05-14T01:23:59.167Z,10.55
2023-05-14T01:28:24.055Z,10.05
2023-05-14T01:32:41.997Z,10.80
2023-05-14T01:37:01.526Z,10.77
2023-05-14T01:41:19.609Z,10.70
2023-05-14T01:45:37.394Z,10.27
2023-05-14T01:49:54.849Z,10.93
2023-05-14T01:54:12.514Z,10.93
2023-05-14T01:58:29.835Z,11.30
2023-05-14T02:02:47.086Z,11.32
2023-05-14T02:07:07.290Z,11.30
2023-05-14T02:11:24.500Z,11.25
2023-05-14T02:15:41.729Z,12.23
2023-05-14T02:19:59.019Z,12.73
2023-05-14T02:24:16.563Z,10.90
2023-05-14T02:28:33.973Z,11.32
2023-05-14T02:32:51.552Z,11.20
2023-05-14T02:37:08.966Z,11.05
2023-05-14T02:41:26.532Z,10.27
2023-05-14T02:45:43.847Z,9.85
2023-05-14T02:50:01.013Z,9.52
2023-05-14T02:54:18.425Z,10.57
2023-05-14T02:58:35.614Z,10.18
2023-05-14T03:02:53.439Z,10.18
2023-05-14T03:07:10.979Z,10.88
2023-05-14T03:11:28.157Z,10.60
2023-05-14T03:15:45.742Z,10.05
2023-05-14T03:20:03.570Z,9.82
2023-05-14T03:24:20.778Z,9.80
2023-05-14T03:28:37.993Z,11.10
2023-05-14T03:32:55.575Z,10.70
2023-05-14T03:37:12.921Z,10.95
2023-05-14T03:41:30.236Z,10.90
2023-05-14T03:45:52.393Z,11.52
2023-05-14T03:50:09.822Z,10.95
2023-05-14T03:54:27.150Z,10.65
2023-05-14T03:58:44.417Z,11.60
2023-05-14T04:03:01.788Z,11.60
2023-05-14T04:07:19.350Z,10.50
2023-05-14T04:11:36.871Z,10.90
2023-05-14T04:15:54.062Z,10.20
2023-05-14T04:20:11.657Z,11.65
2023-05-14T04:24:29.074Z,11.00
2023-05-14T04:28:46.306Z,11.70
2023-05-14T04:33:04.098Z,10.05
2023-05-14T04:37:21.693Z,9.98
2023-05-14T04:41:39.364Z,10.23
2023-05-14T04:45:56.575Z,10.70
2023-05-14T04:50:14.331Z,11.70
2023-05-14T04:54:31.651Z,11.48
2023-05-14T04:58:48.918Z,11.30
2023-05-14T05:03:07.277Z,11.20
2023-05-14T05:07:24.701Z,11.52
2023-05-14T05:11:42.035Z,12.70
2023-05-14T05:15:59.493Z,11.40
2023-05-14T05:20:16.905Z,11.45
2023-05-14T05:24:34.048Z,12.82
2023-05-14T05:28:51.250Z,11.75
2023-05-14T05:33:08.552Z,12.48
2023-05-14T05:37:25.932Z,11.65
2023-05-14T05:41:43.832Z,12.35
2023-05-14T05:46:01.724Z,11.80
2023-05-14T05:50:20.883Z,12.27
2023-05-14T05:54:39.851Z,11.68
2023-05-14T05:58:57.469Z,12.20
2023-05-14T06:03:15.009Z,11.55
2023-05-14T06:07:32.285Z,11.63
2023-05-14T06:11:49.659Z,10.82
2023-05-14T06:16:06.998Z,10.57
2023-05-14T06:20:24.635Z,10.43
2023-05-14T06:24:42.349Z,9.68
2023-05-14T06:28:59.962Z,11.20
2023-05-14T06:33:18.689Z,9.95
2023-05-14T06:37:37.264Z,10.55
2023-05-14T06:41:54.551Z,10.35
2023-05-14T06:46:11.722Z,12.32
2023-05-14T06:50:29.175Z,10.00
2023-05-14T06:54:46.328Z,9.77
2023-05-14T06:59:04.648Z,10.90
2023-05-14T07:03:22.326Z,10.35
2023-05-14T07:07:39.578Z,10.40
2023-05-14T07:11:56.762Z,8.32
2023-05-14T07:16:14.194Z,8.07
2023-05-14T07:20:31.663Z,8.38
2023-05-14T07:24:49.530Z,8.95
2023-05-14T07:29:06.977Z,8.50
2023-05-14T07:33:25.363Z,7.40
2023-05-14T07:37:43.044Z,5.20
2023-05-14T07:42:01.513Z,4.25
2023-05-14T07:46:18.697Z,4.18
2023-05-14T07:50:37.085Z,3.97
2023-05-14T07:54:54.991Z,3.80
2023-05-14T07:59:12.228Z,3.97
2023-05-14T08:03:29.630Z,4.13
2023-05-14T08:07:47.306Z,4.22
2023-05-14T08:12:05.098Z,4.10
2023-05-14T08:16:23.751Z,5.20
2023-05-14T08:20:41.220Z,4.90
2023-05-14T08:24:59.205Z,4.90
2023-05-14T08:29:16.917Z,5.50
2023-05-14T08:33:34.258Z,5.22
2023-05-14T08:37:52.313Z,5.63
2023-05-14T08:42:13.120Z,5.90
2023-05-14T08:46:31.960Z,6.10
2023-05-14T08:55:07.916Z,6.03
2023-05-14T08:59:26.392Z,6.10
2023-05-14T09:03:44.150Z,5.80
2023-05-14T09:08:01.790Z,6.10
2023-05-14T09:12:19.504Z,5.10
2023-05-14T09:16:37.351Z,5.20
2023-05-14T09:20:54.845Z,5.18
2023-05-14T09:25:12.392Z,4.07
2023-05-14T09:29:31.225Z,3.58
2023-05-14T09:38:09.461Z,3.70
2023-05-14T09:42:26.723Z,3.95
2023-05-14T09:46:44.883Z,4.28
2023-05-14T09:51:04.078Z,4.07
2023-05-14T09:55:23.223Z,4.00
2023-05-14T09:59:41.102Z,3.97
2023-05-14T10:03:58.781Z,3.75
2023-05-14T10:08:27.959Z,3.88
2023-05-14T10:17:18.613Z,3.78
2023-05-14T10:21:38.462Z,3.78
2023-05-14T10:25:55.952Z,4.72
2023-05-14T10:30:13.376Z,4.53
2023-05-14T10:34:40.654Z,4.55
2023-05-14T10:38:57.968Z,4.50
2023-05-14T10:43:17.427Z,4.32
2023-05-14T10:47:36.826Z,4.50
2023-05-14T10:51:54.371Z,4.10
2023-05-14T10:56:13.793Z,3.70
2023-05-14T11:00:37.379Z,4.30
2023-05-14T11:05:05.891Z,5.07
2023-05-14T11:09:25.619Z,4.53
2023-05-14T11:13:43.206Z,4.07
2023-05-14T11:18:00.521Z,4.00
2023-05-14T11:22:17.950Z,3.90
2023-05-14T11:26:36.137Z,4.68
2023-05-14T11:31:06.239Z,4.63
2023-05-14T11:35:23.886Z,4.40
2023-05-14T11:39:47.941Z,4.90
2023-05-14T11:44:07.264Z,5.05
2023-05-14T11:48:25.775Z,4.97
2023-05-14T11:52:43.137Z,5.45
2023-05-14T11:57:02.617Z,5.53
2023-05-14T12:01:20.135Z,5.40
2023-05-14T12:05:40.341Z,5.25
2023-05-14T12:10:04.852Z,5.22
2023-05-14T12:14:24.215Z,6.10
2023-05-14T12:18:42.789Z,5.53
2023-05-14T12:23:03.212Z,5.32
2023-05-14T12:27:23.868Z,5.55
2023-05-14T12:31:51.358Z,5.30
2023-05-14T12:40:29.263Z,6.00
2023-05-14T12:44:46.504Z,5.85
2023-05-14T12:49:03.823Z,4.70
2023-05-14T12:53:21.077Z,5.03
2023-05-14T12:57:39.599Z,4.63
2023-05-14T13:01:57.017Z,5.30
2023-05-14T13:06:14.388Z,4.90
2023-05-14T13:10:31.801Z,4.90
2023-05-14T13:14:49.252Z,4.85
2023-05-14T13:19:06.788Z,4.72
2023-05-14T13:23:24.086Z,5.07
2023-05-14T13:27:41.417Z,5.05
2023-05-14T13:31:58.626Z,5.13
2023-05-14T13:36:16.411Z,5.95
2023-05-14T13:40:33.585Z,6.22
2023-05-14T13:44:50.889Z,6.07
2023-05-14T13:49:08.177Z,6.03
2023-05-14T13:53:26.426Z,5.35
2023-05-14T13:57:44.294Z,5.75
2023-05-14T14:02:02.842Z,4.72
2023-05-14T14:06:20.332Z,5.45
2023-05-14T14:10:39.995Z,5.43
2023-05-14T14:14:57.353Z,6.00
2023-05-14T14:19:16.222Z,4.97
2023-05-14T14:23:35.052Z,4.07
2023-05-14T14:27:52.526Z,4.30
2023-05-14T14:32:13.950Z,6.03
2023-05-14T14:36:31.729Z,9.75
2023-05-14T14:40:49.299Z,8.80
2023-05-14T14:45:07.801Z,8.70
2023-05-14T14:49:25.297Z,10.77
2023-05-14T14:53:42.835Z,5.13
2023-05-14T14:58:00.265Z,4.85
2023-05-14T15:02:18.145Z,5.28
2023-05-14T15:06:35.679Z,6.50
2023-05-14T15:10:54.229Z,5.07
2023-05-14T15:15:11.979Z,6.63
2023-05-14T15:19:32.323Z,7.32
2023-05-14T15:23:49.841Z,8.23
2023-05-14T15:28:07.815Z,11.68
2023-05-14T15:32:27.310Z,12.67
2023-05-14T15:36:45.200Z,13.10
2023-05-14T15:41:02.605Z,13.75
2023-05-14T15:45:21.628Z,14.45
2023-05-14T15:49:40.047Z,14.80
2023-05-14T15:53:57.543Z,16.08
2023-05-14T15:58:14.976Z,13.60
2023-05-14T16:02:33.408Z,16.85
2023-05-14T16:11:11.602Z,13.63
2023-05-14T16:15:29.446Z,16.70
2023-05-14T16:19:46.997Z,14.98
2023-05-14T16:24:11.550Z,15.27
2023-05-14T16:28:33.787Z,17.50
2023-05-14T16:32:51.321Z,18.83
2023-05-14T16:37:09.717Z,15.40
2023-05-14T16:41:29.117Z,16.27
2023-05-14T16:45:48.140Z,18.52
2023-05-14T16:50:06.929Z,17.52
2023-05-14T16:58:44.147Z,13.53
2023-05-14T17:03:02.470Z,16.55
2023-05-14T17:07:20.068Z,14.00
2023-05-14T17:11:38.404Z,12.30
2023-05-14T17:15:56.078Z,16.30
2023-05-14T17:20:16.119Z,13.80
2023-05-14T17:24:36.568Z,8.75
2023-05-14T17:28:54.826Z,8.25
2023-05-14T17:33:12.447Z,10.63
2023-05-14T17:37:30.450Z,9.50
2023-05-14T17:41:48.387Z,13.13
2023-05-14T17:46:07.291Z,13.68
2023-05-14T17:54:44.335Z,11.25
2023-05-14T17:59:02.005Z,13.32
2023-05-14T18:03:20.538Z,9.05
2023-05-14T18:07:38.331Z,13.70
2023-05-14T18:11:57.072Z,9.70
2023-05-14T18:20:33.492Z,12.43
2023-05-14T18:24:52.995Z,18.83
2023-05-14T18:29:10.880Z,20.48
2023-05-14T18:33:28.494Z,15.15
2023-05-14T18:37:46.462Z,22.20
2023-05-14T18:42:04.559Z,17.30
2023-05-14T18:46:23.465Z,17.95
2023-05-14T18:50:41.404Z,16.45
2023-05-14T18:54:59.181Z,17.75
2023-05-14T18:59:16.775Z,18.42
2023-05-14T19:03:34.557Z,21.33
2023-05-14T19:07:59.694Z,21.98
2023-05-14T19:12:17.402Z,31.60
2023-05-14T19:16:35.073Z,24.80
2023-05-14T19:20:52.674Z,27.15
2023-05-14T19:25:11.234Z,24.25
2023-05-14T19:29:28.883Z,24.88
2023-05-14T19:33:46.833Z,27.40
2023-05-14T19:42:22.966Z,26.98
2023-05-14T19:46:40.829Z,25.85
2023-05-14T19:50:58.567Z,23.23
2023-05-14T19:55:16.093Z,26.75
2023-05-14T19:59:34.752Z,27.75
2023-05-14T20:03:52.309Z,23.35
2023-05-14T20:08:09.790Z,25.02
2023-05-14T20:12:30.220Z,25.55
2023-05-14T20:16:49.079Z,29.75
2023-05-14T20:21:06.584Z,27.25
2023-05-14T20:25:25.946Z,26.98
2023-05-14T20:29:46.709Z,25.40
2023-05-14T20:34:04.220Z,31.20
2023-05-14T20:38:22.438Z,31.05
2023-05-14T20:42:40.155Z,30.48
2023-05-14T20:46:57.683Z,26.80
2023-05-14T20:51:15.110Z,27.27
2023-05-14T20:55:33.213Z,28.88
2023-05-14T20:59:50.601Z,31.23
2023-05-14T21:04:08.179Z,31.08
2023-05-14T21:08:26.074Z,31.10
2023-05-14T21:12:44.791Z,31.17
2023-05-14T21:21:19.464Z,28.13
2023-05-14T21:25:36.811Z,30.58
2023-05-14T21:29:54.100Z,32.20
2023-05-14T21:34:11.487Z,35.05
2023-05-14T21:38:28.941Z,28.85
2023-05-14T21:42:46.172Z,25.80
2023-05-14T21:47:04.411Z,27.23
2023-05-14T21:51:21.658Z,31.20
2023-05-14T21:55:39.106Z,32.67
2023-05-14T21:59:56.325Z,28.67
2023-05-14T22:04:13.634Z,29.17
2023-05-14T22:08:31.110Z,26.02
2023-05-14T22:12:48.542Z,25.52
2023-05-14T22:17:05.760Z,29.17
2023-05-14T22:21:22.970Z,25.30
2023-05-14T22:25:40.518Z,26.52
2023-05-14T22:29:58.754Z,29.30
2023-05-14T22:34:16.223Z,24.95
2023-05-14T22:38:34.312Z,29.40
2023-05-14T22:42:51.593Z,28.63
2023-05-14T22:47:08.968Z,30.25
2023-05-14T22:51:26.177Z,31.90
2023-05-14T22:55:43.847Z,29.27
2023-05-14T23:00:01.417Z,25.67
2023-05-14T23:04:18.689Z,28.98
2023-05-14T23:08:36.078Z,24.77
2023-05-14T23:12:53.309Z,26.33
2023-05-14T23:17:10.792Z,25.58
2023-05-14T23:21:27.998Z,23.42
2023-05-14T23:25:45.274Z,23.77
2023-05-14T23:30:03.670Z,20.92
2023-05-14T23:34:22.084Z,23.42
2023-05-14T23:38:40.083Z,24.73
2023-05-14T23:43:00.541Z,21.20
2023-05-14T23:47:17.726Z,23.65
2023-05-14T23:51:35.135Z,20.85
2023-05-14T23:55:52.410Z,21.38
